Time;durP1;ratioP1;P1;durP2;ratioP2;P2;SDS_P1;SDS_P2;PMS_P1;PMS_P2;Temp;Humidity;BMP_temperature;BMP_pressure;BME280_temperature;BME280_humidity;BME280_pressure;Samples;Min_cycle;Max_cycle;Signal;HPM_P1;HPM_P2
2022/03/26 00:02:01;;;;;;;4.22;1.20;;;;;;;;;;4969590;28;20059;-77
2022/03/26 00:04:32;;;;;;;4.15;1.15;;;;;;;;;;4964199;28;20415;-76
2022/03/26 00:07:02;;;;;;;5.15;1.10;;;;;;;;;;4957504;28;20056;-77
2022/03/26 00:09:33;;;;;;;3.90;0.95;;;;;;;;;;4901665;29;20054;-78
2022/03/26 00:12:06;;;;;;;3.35;1.05;;;;;;;;;;4932899;29;20515;-78
2022/03/26 00:14:37;;;;;;;5.20;0.95;;;;;;;;;;4952135;29;20058;-78
2022/03/26 00:17:07;;;;;;;6.00;1.33;;;;;;;;;;4952278;29;20557;-78
2022/03/26 00:19:38;;;;;;;3.58;0.90;;;;;;;;;;4951962;29;20059;-77
2022/03/26 00:22:09;;;;;;;4.60;1.10;;;;;;;;;;4952133;29;20055;-76
2022/03/26 00:24:39;;;;;;;2.13;0.80;;;;;;;;;;4925476;29;20067;-77
2022/03/26 00:27:11;;;;;;;4.90;1.35;;;;;;;;;;4882516;29;20067;-78
2022/03/26 00:29:42;;;;;;;3.67;1.00;;;;;;;;;;4948183;29;20047;-78
2022/03/26 00:32:14;;;;;;;;;;;;;;;;;;4933136;29;20078;-78
2022/03/26 00:34:44;;;;;;;3.42;0.95;;;;;;;;;;4932939;29;19923;-77
2022/03/26 00:37:15;;;;;;;4.38;1.10;;;;;;;;;;4932679;29;20570;-77
2022/03/26 00:39:46;;;;;;;4.90;1.38;;;;;;;;;;4942957;29;20070;-78
2022/03/26 00:42:16;;;;;;;5.65;1.10;;;;;;;;;;4952651;28;20064;-75
2022/03/26 00:44:47;;;;;;;4.38;1.23;;;;;;;;;;4960442;28;20051;-78
2022/03/26 00:47:18;;;;;;;8.68;1.40;;;;;;;;;;4972197;28;20065;-79
2022/03/26 00:49:48;;;;;;;5.38;1.50;;;;;;;;;;4952276;28;20053;-77
2022/03/26 00:52:19;;;;;;;10.43;1.08;;;;;;;;;;5004135;28;20165;-77
2022/03/26 00:54:49;;;;;;;4.53;1.00;;;;;;;;;;5029340;28;20102;-78
2022/03/26 00:57:20;;;;;;;6.13;1.23;;;;;;;;;;5029347;28;20042;-78
2022/03/26 00:59:51;;;;;;;4.35;1.15;;;;;;;;;;5029044;28;20056;-77
2022/03/26 01:02:22;;;;;;;5.38;1.20;;;;;;;;;;5029457;28;20060;-78
2022/03/26 01:04:53;;;;;;;3.45;1.38;;;;;;;;;;5029700;28;20060;-77
2022/03/26 01:07:25;;;;;;;4.75;1.52;;;;;;;;;;5039801;28;20053;-74
2022/03/26 01:09:55;;;;;;;6.53;1.58;;;;;;;;;;5049778;28;20432;-78
2022/03/26 01:12:27;;;;;;;4.90;1.08;;;;;;;;;;5009513;28;20053;-78
2022/03/26 01:14:57;;;;;;;4.35;1.30;;;;;;;;;;4994192;28;20053;-77
2022/03/26 01:17:28;;;;;;;3.05;1.52;;;;;;;;;;5009637;28;20101;-78
2022/03/26 01:20:02;;;;;;;6.13;1.30;;;;;;;;;;5009239;28;20711;-77
2022/03/26 01:22:33;;;;;;;7.38;1.40;;;;;;;;;;5019097;28;20046;-77
2022/03/26 01:25:05;;;;;;;5.80;1.50;;;;;;;;;;5022816;28;20054;-78
2022/03/26 01:27:35;;;;;;;3.60;1.40;;;;;;;;;;5005028;28;20066;-78
2022/03/26 01:30:07;;;;;;;4.85;1.55;;;;;;;;;;5013488;28;20068;-78
2022/03/26 01:32:38;;;;;;;4.13;2.15;;;;;;;;;;5029227;28;20065;-77
2022/03/26 01:35:08;;;;;;;10.23;1.83;;;;;;;;;;5009580;28;20050;-77
2022/03/26 01:37:39;;;;;;;7.97;1.80;;;;;;;;;;4964631;28;20062;-78
2022/03/26 01:40:11;;;;;;;9.77;2.70;;;;;;;;;;5013715;28;20406;-78
2022/03/26 01:42:44;;;;;;;6.45;2.55;;;;;;;;;;4974201;28;20435;-75
2022/03/26 01:45:15;;;;;;;9.02;1.92;;;;;;;;;;4974520;28;20549;-78
2022/03/26 01:47:46;;;;;;;6.57;2.20;;;;;;;;;;4974511;28;20063;-76
2022/03/26 01:50:16;;;;;;;9.63;1.90;;;;;;;;;;4931558;29;20051;-78
2022/03/26 01:52:47;;;;;;;6.28;2.03;;;;;;;;;;4957685;28;20066;-77
2022/03/26 01:55:19;;;;;;;6.47;1.77;;;;;;;;;;4974562;28;20554;-77
2022/03/26 01:57:53;;;;;;;;;;;;;;;;;;4974928;28;20062;-76
2022/03/26 02:00:24;;;;;;;6.60;1.73;;;;;;;;;;4974532;28;19966;-75
2022/03/26 02:02:56;;;;;;;7.50;2.03;;;;;;;;;;4973807;28;20502;-76
2022/03/26 02:05:28;;;;;;;8.90;2.33;;;;;;;;;;4942235;28;20054;-77
2022/03/26 02:07:59;;;;;;;5.25;1.80;;;;;;;;;;4974231;28;20559;-77
2022/03/26 02:10:30;;;;;;;6.80;1.83;;;;;;;;;;5012860;28;20054;-77
2022/03/26 02:13:02;;;;;;;7.95;2.30;;;;;;;;;;5025252;28;20115;-75
2022/03/26 02:15:33;;;;;;;4.20;1.58;;;;;;;;;;5016725;28;20519;-76
2022/03/26 02:18:09;;;;;;;6.25;2.30;;;;;;;;;;5032750;28;20052;-76
2022/03/26 02:20:41;;;;;;;6.53;1.98;;;;;;;;;;5062371;28;20056;-77
2022/03/26 02:23:12;;;;;;;9.25;1.80;;;;;;;;;;5032309;28;20053;-76
2022/03/26 02:25:42;;;;;;;4.93;1.80;;;;;;;;;;4973471;28;20051;-77
2022/03/26 02:28:13;;;;;;;5.80;1.88;;;;;;;;;;4925604;28;20059;-76
2022/03/26 02:30:43;;;;;;;7.57;1.98;;;;;;;;;;4973701;28;20051;-77
2022/03/26 02:33:14;;;;;;;5.38;1.83;;;;;;;;;;4941366;28;20110;-75
2022/03/26 02:35:48;;;;;;;7.32;2.20;;;;;;;;;;4973714;28;20058;-77
2022/03/26 02:38:18;;;;;;;7.13;1.80;;;;;;;;;;4973467;28;20055;-76
2022/03/26 02:40:49;;;;;;;7.35;2.00;;;;;;;;;;4989361;28;20822;-77
2022/03/26 02:43:20;;;;;;;4.85;1.95;;;;;;;;;;4973615;28;20054;-77
2022/03/26 02:45:50;;;;;;;10.93;2.05;;;;;;;;;;4973251;28;20062;-77
2022/03/26 02:48:21;;;;;;;6.22;1.73;;;;;;;;;;4949829;28;20060;-77
2022/03/26 02:50:52;;;;;;;7.05;2.25;;;;;;;;;;4935085;29;20055;-75
2022/03/26 02:53:24;;;;;;;6.38;2.38;;;;;;;;;;4965143;28;20059;-77
2022/03/26 02:55:54;;;;;;;8.13;2.42;;;;;;;;;;4953908;29;20395;-77
2022/03/26 02:58:25;;;;;;;6.95;2.20;;;;;;;;;;4921694;29;20058;-77
2022/03/26 03:00:57;;;;;;;6.53;2.45;;;;;;;;;;4975988;28;20069;-76
2022/03/26 03:03:29;;;;;;;5.40;2.10;;;;;;;;;;5015342;28;20057;-77
2022/03/26 03:05:59;;;;;;;5.50;1.90;;;;;;;;;;5016032;28;20064;-77
2022/03/26 03:08:30;;;;;;;6.65;2.13;;;;;;;;;;5011775;28;20502;-77
2022/03/26 03:11:00;;;;;;;6.35;2.15;;;;;;;;;;4996154;28;20506;-76
2022/03/26 03:13:31;;;;;;;8.02;2.15;;;;;;;;;;4979331;28;20057;-77
2022/03/26 03:16:02;;;;;;;7.47;1.60;;;;;;;;;;5011619;28;20050;-78
2022/03/26 03:18:33;;;;;;;10.98;1.83;;;;;;;;;;5011936;28;20062;-77
2022/03/26 03:21:06;;;;;;;5.90;1.73;;;;;;;;;;5011916;28;20050;-77
2022/03/26 03:23:37;;;;;;;8.32;2.08;;;;;;;;;;4995739;28;20061;-77
2022/03/26 03:26:07;;;;;;;3.67;1.10;;;;;;;;;;5011790;28;20057;-76
2022/03/26 03:28:41;;;;;;;3.80;1.35;;;;;;;;;;5011997;28;20046;-76
2022/03/26 03:31:12;;;;;;;5.35;1.30;;;;;;;;;;5023142;28;20060;-76
2022/03/26 03:33:42;;;;;;;3.83;1.88;;;;;;;;;;5043004;28;20056;-76
2022/03/26 03:36:13;;;;;;;13.05;1.52;;;;;;;;;;5018181;28;20492;-76
2022/03/26 03:38:44;;;;;;;6.68;1.67;;;;;;;;;;5051213;28;20049;-75
2022/03/26 03:41:14;;;;;;;6.80;2.35;;;;;;;;;;5051074;28;20400;-76
2022/03/26 03:43:45;;;;;;;5.53;1.83;;;;;;;;;;5051291;28;20049;-77
2022/03/26 03:46:16;;;;;;;9.20;1.90;;;;;;;;;;5052389;28;20060;-76
2022/03/26 03:48:46;;;;;;;4.82;1.50;;;;;;;;;;5053260;28;20037;-76
2022/03/26 03:51:17;;;;;;;9.45;2.20;;;;;;;;;;5053186;28;20045;-77
2022/03/26 03:53:47;;;;;;;11.18;1.50;;;;;;;;;;5053517;28;20064;-75
2022/03/26 03:56:18;;;;;;;4.93;1.60;;;;;;;;;;5053160;28;20040;-76
2022/03/26 03:58:48;;;;;;;5.45;1.67;;;;;;;;;;5053318;28;20037;-75
2022/03/26 04:01:19;;;;;;;8.63;1.63;;;;;;;;;;5052977;28;20044;-77
2022/03/26 04:03:50;;;;;;;7.55;1.60;;;;;;;;;;5052945;28;20072;-76
2022/03/26 04:06:20;;;;;;;5.70;1.60;;;;;;;;;;5050583;28;20053;-76
2022/03/26 04:08:51;;;;;;;5.43;1.60;;;;;;;;;;5050555;28;20057;-76
2022/03/26 04:11:21;;;;;;;6.32;2.70;;;;;;;;;;5050533;28;20156;-75
2022/03/26 04:13:53;;;;;;;6.32;1.38;;;;;;;;;;5050612;28;20041;-76
2022/03/26 04:16:24;;;;;;;5.30;1.50;;;;;;;;;;5070256;28;20051;-76
2022/03/26 04:18:55;;;;;;;5.32;1.70;;;;;;;;;;5050199;28;20052;-76
2022/03/26 04:21:26;;;;;;;6.63;1.98;;;;;;;;;;5050297;28;20052;-76
2022/03/26 04:23:57;;;;;;;4.75;1.50;;;;;;;;;;5050136;28;20064;-76
2022/03/26 04:26:27;;;;;;;4.47;1.60;;;;;;;;;;5050478;28;20424;-76
2022/03/26 04:28:58;;;;;;;6.30;1.52;;;;;;;;;;5050447;28;20064;-75
2022/03/26 04:31:29;;;;;;;6.63;1.30;;;;;;;;;;5000854;28;20056;-75
2022/03/26 04:34:01;;;;;;;5.75;1.58;;;;;;;;;;5034020;28;20072;-76
2022/03/26 04:36:32;;;;;;;8.40;1.70;;;;;;;;;;5049929;28;20057;-76
2022/03/26 04:39:03;;;;;;;2.85;1.40;;;;;;;;;;5034542;28;20045;-75
2022/03/26 04:41:34;;;;;;;8.25;1.77;;;;;;;;;;5049976;28;20053;-77
2022/03/26 04:44:05;;;;;;;4.72;1.60;;;;;;;;;;4982650;28;20038;-74
2022/03/26 04:46:35;;;;;;;9.13;2.00;;;;;;;;;;4990709;28;20054;-74
2022/03/26 04:49:06;;;;;;;6.05;1.90;;;;;;;;;;4990717;28;20054;-75
2022/03/26 04:51:37;;;;;;;5.32;1.73;;;;;;;;;;4951537;28;20523;-75
2022/03/26 04:54:07;;;;;;;6.93;1.52;;;;;;;;;;4915941;29;20052;-75
2022/03/26 04:56:38;;;;;;;5.68;1.40;;;;;;;;;;4934761;28;20055;-76
2022/03/26 04:59:08;;;;;;;6.30;1.45;;;;;;;;;;4951911;28;20063;-75
2022/03/26 05:01:41;;;;;;;3.17;1.63;;;;;;;;;;4962198;28;20063;-75
2022/03/26 05:04:12;;;;;;;4.68;1.83;;;;;;;;;;4970902;28;20054;-73
2022/03/26 05:06:42;;;;;;;5.68;1.67;;;;;;;;;;4971140;28;20058;-75
2022/03/26 05:09:13;;;;;;;6.45;1.90;;;;;;;;;;4971052;28;20069;-75
2022/03/26 05:11:43;;;;;;;8.73;1.65;;;;;;;;;;4970642;28;20054;-75
2022/03/26 05:14:14;;;;;;;6.43;1.73;;;;;;;;;;4972855;28;20054;-75
2022/03/26 05:16:44;;;;;;;4.78;1.52;;;;;;;;;;4974445;28;20176;-75
2022/03/26 05:19:15;;;;;;;3.97;1.20;;;;;;;;;;5009764;28;20049;-75
2022/03/26 05:21:45;;;;;;;2.83;1.00;;;;;;;;;;4989804;28;20117;-74
2022/03/26 05:24:16;;;;;;;3.17;1.30;;;;;;;;;;4990230;28;20069;-76
2022/03/26 05:26:46;;;;;;;8.23;1.80;;;;;;;;;;4990079;28;20065;-75
2022/03/26 05:29:16;;;;;;;5.22;1.20;;;;;;;;;;5031720;28;20119;-74
2022/03/26 05:31:47;;;;;;;3.50;1.48;;;;;;;;;;5000010;28;20575;-75
2022/03/26 05:34:18;;;;;;;5.05;1.50;;;;;;;;;;5049670;28;20056;-75
2022/03/26 05:36:48;;;;;;;7.72;1.77;;;;;;;;;;5029070;28;20061;-74
2022/03/26 05:39:19;;;;;;;4.32;2.00;;;;;;;;;;5029856;28;20053;-75
2022/03/26 05:41:50;;;;;;;4.85;1.63;;;;;;;;;;5009600;28;20085;-75
2022/03/26 05:44:21;;;;;;;8.27;1.90;;;;;;;;;;5009624;28;20065;-74
2022/03/26 05:46:51;;;;;;;8.88;1.50;;;;;;;;;;5009474;28;20514;-75
2022/03/26 05:49:22;;;;;;;8.00;1.55;;;;;;;;;;5009754;28;20053;-75
2022/03/26 05:51:53;;;;;;;5.32;1.10;;;;;;;;;;5009772;28;20049;-75
2022/03/26 05:54:24;;;;;;;9.30;2.22;;;;;;;;;;5009673;28;20058;-74
2022/03/26 05:56:54;;;;;;;7.05;2.25;;;;;;;;;;4941687;28;20411;-76
2022/03/26 05:59:26;;;;;;;7.82;1.60;;;;;;;;;;4980493;28;20114;-75
2022/03/26 06:01:57;;;;;;;6.18;1.45;;;;;;;;;;4989747;28;20055;-75
2022/03/26 06:04:28;;;;;;;6.97;1.33;;;;;;;;;;4990064;28;20078;-74
2022/03/26 06:06:59;;;;;;;3.42;1.27;;;;;;;;;;4989961;28;20055;-75
2022/03/26 06:09:29;;;;;;;3.95;1.13;;;;;;;;;;5028814;28;20045;-75
2022/03/26 06:12:00;;;;;;;9.05;1.50;;;;;;;;;;5028976;28;20072;-75
2022/03/26 06:14:31;;;;;;;4.68;1.20;;;;;;;;;;5023834;28;20076;-74
2022/03/26 06:17:01;;;;;;;5.40;1.33;;;;;;;;;;5015848;28;20059;-74
2022/03/26 06:19:31;;;;;;;4.35;1.30;;;;;;;;;;5082100;28;20055;-75
2022/03/26 06:22:02;;;;;;;4.40;1.30;;;;;;;;;;5109468;28;20051;-75
2022/03/26 06:24:33;;;;;;;5.20;1.25;;;;;;;;;;5071768;28;20061;-76
2022/03/26 06:27:05;;;;;;;6.07;1.65;;;;;;;;;;5056151;28;20059;-76
2022/03/26 06:29:36;;;;;;;5.13;1.23;;;;;;;;;;5055937;28;20071;-75
2022/03/26 06:32:08;;;;;;;10.82;1.27;;;;;;;;;;5072148;28;20053;-75
2022/03/26 06:34:38;;;;;;;9.27;1.60;;;;;;;;;;5072284;28;20403;-75
2022/03/26 06:37:08;;;;;;;4.00;1.30;;;;;;;;;;5072259;28;20064;-75
2022/03/26 06:39:39;;;;;;;3.78;1.20;;;;;;;;;;5023035;28;20071;-74
2022/03/26 06:42:10;;;;;;;5.50;1.60;;;;;;;;;;5052074;28;20049;-75
2022/03/26 06:44:43;;;;;;;7.47;1.40;;;;;;;;;;5032136;28;20072;-75
2022/03/26 06:47:14;;;;;;;8.95;1.23;;;;;;;;;;4971875;28;20051;-75
2022/03/26 06:49:44;;;;;;;3.22;1.02;;;;;;;;;;4954107;29;20070;-75
2022/03/26 06:52:15;;;;;;;9.25;1.23;;;;;;;;;;4954475;29;20539;-76
2022/03/26 06:54:46;;;;;;;5.13;1.10;;;;;;;;;;4954045;29;20156;-74
2022/03/26 06:57:16;;;;;;;4.18;1.05;;;;;;;;;;4954001;29;20061;-75
2022/03/26 06:59:47;;;;;;;6.78;1.90;;;;;;;;;;4954106;29;20060;-75
2022/03/26 07:02:18;;;;;;;5.85;1.00;;;;;;;;;;4925189;28;20054;-74
2022/03/26 07:04:48;;;;;;;2.40;0.95;;;;;;;;;;4925623;28;20055;-75
2022/03/26 07:07:19;;;;;;;7.40;1.45;;;;;;;;;;4973246;28;20059;-75
2022/03/26 07:09:49;;;;;;;3.78;1.40;;;;;;;;;;4972942;28;20063;-75
2022/03/26 07:12:20;;;;;;;3.90;1.05;;;;;;;;;;4972620;28;20049;-75
2022/03/26 07:14:51;;;;;;;9.77;1.40;;;;;;;;;;4992090;28;20050;-75
2022/03/26 07:17:21;;;;;;;3.15;1.17;;;;;;;;;;4960454;28;20054;-75
2022/03/26 07:19:52;;;;;;;7.93;1.60;;;;;;;;;;4986965;28;20422;-74
2022/03/26 07:22:22;;;;;;;5.57;1.40;;;;;;;;;;5001660;28;20041;-75
2022/03/26 07:24:53;;;;;;;4.15;1.45;;;;;;;;;;5001964;28;20077;-75
2022/03/26 07:27:23;;;;;;;7.07;1.50;;;;;;;;;;4953151;29;20051;-75
2022/03/26 07:29:54;;;;;;;4.57;1.20;;;;;;;;;;4933992;29;20062;-75
2022/03/26 07:32:25;;;;;;;4.07;1.33;;;;;;;;;;4934425;29;20636;-75
2022/03/26 07:34:56;;;;;;;3.33;1.40;;;;;;;;;;4933773;29;20067;-76
2022/03/26 07:37:26;;;;;;;4.55;1.70;;;;;;;;;;4915006;29;20060;-75
2022/03/26 07:39:58;;;;;;;3.05;1.52;;;;;;;;;;4899835;29;20056;-74
2022/03/26 07:42:29;;;;;;;4.85;1.63;;;;;;;;;;4868168;29;20059;-75
2022/03/26 07:45:00;;;;;;;6.32;1.90;;;;;;;;;;4899568;29;20064;-75
2022/03/26 07:47:30;;;;;;;4.72;2.28;;;;;;;;;;4914987;29;20404;-75
2022/03/26 07:50:02;;;;;;;9.45;1.88;;;;;;;;;;4886718;29;20056;-75
2022/03/26 07:52:33;;;;;;;;;;;;;;;;;;4896432;29;20061;-75
2022/03/26 07:55:04;;;;;;;7.68;2.20;;;;;;;;;;4895810;29;19924;-75
2022/03/26 07:57:35;;;;;;;7.13;2.10;;;;;;;;;;4896009;29;20048;-75
2022/03/26 08:00:09;;;;;;;5.15;2.08;;;;;;;;;;4905545;29;20056;-75
2022/03/26 08:02:42;;;;;;;7.97;2.10;;;;;;;;;;4914858;29;20068;-74
2022/03/26 08:05:13;;;;;;;7.05;2.22;;;;;;;;;;4936404;28;20154;-74
2022/03/26 08:07:43;;;;;;;6.30;2.15;;;;;;;;;;4963789;28;20059;-75
2022/03/26 08:10:14;;;;;;;10.18;2.20;;;;;;;;;;4971942;28;20054;-75
2022/03/26 08:12:45;;;;;;;6.28;2.03;;;;;;;;;;4971999;28;20050;-75
2022/03/26 08:15:16;;;;;;;4.80;2.22;;;;;;;;;;4971456;28;20466;-74
2022/03/26 08:17:46;;;;;;;8.63;2.17;;;;;;;;;;4971695;28;20058;-74
2022/03/26 08:20:17;;;;;;;5.55;2.38;;;;;;;;;;4955818;28;20054;-75
2022/03/26 08:22:47;;;;;;;10.40;2.42;;;;;;;;;;4971413;28;20066;-75
2022/03/26 08:26:19;;;;;;;11.07;2.05;;;;;;;;;;4955829;28;20055;-74
2022/03/26 08:28:11;;;;;;;10.13;1.83;;;;;;;;;;4998865;28;20058;-74
2022/03/26 08:30:42;;;;;;;6.00;2.67;;;;;;;;;;4994513;28;20425;-74
2022/03/26 08:33:13;;;;;;;5.00;2.38;;;;;;;;;;5010545;28;20057;-74
2022/03/26 08:35:44;;;;;;;9.90;2.40;;;;;;;;;;5020509;28;20479;-74
2022/03/26 08:38:14;;;;;;;10.10;2.78;;;;;;;;;;5029914;28;20519;-75
2022/03/26 08:40:45;;;;;;;9.77;2.30;;;;;;;;;;4997191;28;20057;-73
2022/03/26 08:43:16;;;;;;;4.65;2.22;;;;;;;;;;5030201;28;20409;-73
2022/03/26 08:45:47;;;;;;;7.32;2.42;;;;;;;;;;5029250;28;20057;-74
2022/03/26 08:48:17;;;;;;;6.40;2.50;;;;;;;;;;4990511;28;20061;-74
2022/03/26 08:50:48;;;;;;;5.53;2.20;;;;;;;;;;4975205;28;20073;-73
2022/03/26 08:53:19;;;;;;;8.35;2.72;;;;;;;;;;4945759;28;20051;-74
2022/03/26 08:55:53;;;;;;;6.00;2.50;;;;;;;;;;4955508;28;20058;-73
2022/03/26 08:58:24;;;;;;;5.90;2.83;;;;;;;;;;4971411;28;20051;-73
2022/03/26 09:00:54;;;;;;;16.77;4.10;;;;;;;;;;4938958;28;20409;-73
2022/03/26 09:03:26;;;;;;;9.55;3.42;;;;;;;;;;4970932;28;20415;-74
2022/03/26 09:06:00;;;;;;;10.75;3.58;;;;;;;;;;4954587;28;20414;-73
2022/03/26 09:08:30;;;;;;;10.40;3.35;;;;;;;;;;4938960;28;20065;-73
2022/03/26 09:11:02;;;;;;;7.20;3.08;;;;;;;;;;4970588;28;20070;-73
2022/03/26 09:13:34;;;;;;;11.98;3.20;;;;;;;;;;4982140;28;20058;-73
2022/03/26 09:16:04;;;;;;;9.68;3.47;;;;;;;;;;4969106;28;20046;-73
2022/03/26 09:18:35;;;;;;;9.20;3.72;;;;;;;;;;4977609;28;20053;-72
2022/03/26 09:21:06;;;;;;;13.10;4.40;;;;;;;;;;5009690;28;20058;-72
2022/03/26 09:23:37;;;;;;;11.25;4.45;;;;;;;;;;5009688;28;20161;-73
2022/03/26 09:26:07;;;;;;;9.93;3.08;;;;;;;;;;4979814;28;20056;-73
2022/03/26 09:28:37;;;;;;;9.02;3.78;;;;;;;;;;5029975;28;20053;-73
2022/03/26 09:31:08;;;;;;;8.40;3.70;;;;;;;;;;4973657;28;20537;-73
2022/03/26 09:33:39;;;;;;;10.35;3.38;;;;;;;;;;4989915;28;20070;-72
2022/03/26 09:36:10;;;;;;;10.20;3.25;;;;;;;;;;4990131;28;20102;-72
2022/03/26 09:38:40;;;;;;;15.50;4.28;;;;;;;;;;4990180;28;20065;-72
2022/03/26 09:41:11;;;;;;;11.48;5.07;;;;;;;;;;4989553;28;20522;-72
2022/03/26 09:43:41;;;;;;;12.38;5.20;;;;;;;;;;4989990;28;20050;-72
2022/03/26 09:46:12;;;;;;;13.48;5.97;;;;;;;;;;4988493;28;20581;-72
2022/03/26 09:48:43;;;;;;;15.43;6.30;;;;;;;;;;4965110;28;20051;-72
2022/03/26 09:51:15;;;;;;;15.52;6.03;;;;;;;;;;4963343;28;20061;-73
2022/03/26 09:53:46;;;;;;;;;;;;;;;;;;4979370;28;20058;-72
2022/03/26 09:56:17;;;;;;;11.43;5.30;;;;;;;;;;4989124;28;20389;-72
2022/03/26 09:58:52;;;;;;;16.10;5.97;;;;;;;;;;4958640;28;20046;-73
2022/03/26 10:01:25;;;;;;;18.48;6.47;;;;;;;;;;4988144;28;20117;-72
2022/03/26 10:04:17;;;;;;;16.67;6.40;;;;;;;;;;4968231;28;20509;-72
2022/03/26 10:06:56;;;;;;;11.27;5.18;;;;;;;;;;4987821;28;20065;-73
2022/03/26 10:09:45;;;;;;;13.50;5.50;;;;;;;;;;4996083;28;20054;-73
2022/03/26 10:12:21;;;;;;;11.05;5.47;;;;;;;;;;5012791;28;20061;-73
2022/03/26 10:15:00;;;;;;;11.77;5.53;;;;;;;;;;4992996;28;20060;-73
2022/03/26 10:17:38;;;;;;;15.80;4.28;;;;;;;;;;4993417;28;20058;-73
2022/03/26 10:20:12;;;;;;;16.00;4.40;;;;;;;;;;4989790;28;20066;-72
2022/03/26 10:22:45;;;;;;;8.82;3.33;;;;;;;;;;4957715;28;20051;-72
2022/03/26 10:25:18;;;;;;;7.65;2.53;;;;;;;;;;4958123;28;20054;-72
2022/03/26 10:27:59;;;;;;;8.20;2.92;;;;;;;;;;4992785;28;20058;-72
2022/03/26 10:33:25;;;;;;;13.50;3.05;;;;;;;;;;4987982;28;20050;-73
2022/03/26 10:35:58;;;;;;;5.63;2.45;;;;;;;;;;4973726;28;20055;-74
2022/03/26 10:38:34;;;;;;;7.70;2.65;;;;;;;;;;4968415;28;20047;-72
2022/03/26 10:41:08;;;;;;;6.63;2.75;;;;;;;;;;4941388;28;20055;-72
2022/03/26 10:43:43;;;;;;;6.82;3.20;;;;;;;;;;4976752;28;20054;-72
2022/03/26 10:46:23;;;;;;;7.70;2.80;;;;;;;;;;4977461;28;20054;-72
2022/03/26 10:49:02;;;;;;;7.78;3.00;;;;;;;;;;4992847;28;20057;-71
2022/03/26 10:51:40;;;;;;;8.07;2.80;;;;;;;;;;4994753;28;20483;-71
2022/03/26 10:54:12;;;;;;;8.05;2.92;;;;;;;;;;5027682;28;20050;-71
2022/03/26 10:56:43;;;;;;;8.27;3.20;;;;;;;;;;5032316;28;20057;-72
2022/03/26 10:59:14;;;;;;;8.60;3.15;;;;;;;;;;5015625;28;20064;-72
2022/03/26 11:01:45;;;;;;;6.75;2.92;;;;;;;;;;5031731;28;20053;-71
2022/03/26 11:04:15;;;;;;;9.75;3.10;;;;;;;;;;5031673;28;20058;-71
2022/03/26 11:06:49;;;;;;;12.23;2.85;;;;;;;;;;5051780;28;20052;-71
2022/03/26 11:09:20;;;;;;;7.25;2.85;;;;;;;;;;5050790;28;20059;-72
2022/03/26 11:11:51;;;;;;;8.95;2.97;;;;;;;;;;5071258;28;20056;-72
2022/03/26 11:14:39;;;;;;;6.13;2.55;;;;;;;;;;5011620;28;20054;-72
2022/03/26 11:17:38;;;;;;;7.47;2.65;;;;;;;;;;4997368;28;20494;-71
2022/03/26 11:20:39;;;;;;;10.38;2.72;;;;;;;;;;4995722;28;20061;-71
2022/03/26 11:23:28;;;;;;;5.38;2.10;;;;;;;;;;5011609;28;20065;-71
2022/03/26 11:26:25;;;;;;;9.07;2.53;;;;;;;;;;4995863;28;20054;-71
2022/03/26 11:29:21;;;;;;;6.60;2.72;;;;;;;;;;4972395;28;20055;-71
2022/03/26 11:32:18;;;;;;;7.57;2.85;;;;;;;;;;4972583;28;20059;-71
2022/03/26 11:35:00;;;;;;;5.10;2.42;;;;;;;;;;4902155;29;20051;-71
2022/03/26 11:37:31;;;;;;;9.45;2.90;;;;;;;;;;4914518;29;20052;-71
2022/03/26 11:40:02;;;;;;;7.38;2.45;;;;;;;;;;4914423;29;20060;-71
2022/03/26 11:42:35;;;;;;;11.60;2.75;;;;;;;;;;4914410;29;20052;-71
2022/03/26 11:51:25;;;;;;;7.63;3.40;;;;;;;;;;4881451;29;20060;-72
2022/03/26 11:54:04;;;;;;;8.45;3.22;;;;;;;;;;4861440;29;20073;-72
2022/03/26 11:56:35;;;;;;;8.27;3.60;;;;;;;;;;4876971;29;20056;-72
2022/03/26 11:59:20;;;;;;;13.82;3.22;;;;;;;;;;4861444;29;20060;-72
2022/03/26 12:01:50;;;;;;;;;;;;;;;;;;4858517;29;20061;-72
2022/03/26 12:04:26;;;;;;;10.20;2.63;;;;;;;;;;4858079;29;19924;-72
2022/03/26 12:07:00;;;;;;;6.07;2.10;;;;;;;;;;4828066;29;20058;-73
2022/03/26 12:09:36;;;;;;;6.22;2.33;;;;;;;;;;4821474;29;20515;-72
2022/03/26 12:12:10;;;;;;;6.07;2.15;;;;;;;;;;4827842;29;20066;-72
2022/03/26 12:15:02;;;;;;;7.80;1.80;;;;;;;;;;4834219;29;20058;-72
2022/03/26 12:18:05;;;;;;;7.40;2.30;;;;;;;;;;4847564;29;20068;-72
2022/03/26 12:20:47;;;;;;;9.38;2.10;;;;;;;;;;4857134;29;20529;-71
2022/03/26 12:23:28;;;;;;;4.90;1.60;;;;;;;;;;4876514;29;20406;-70
2022/03/26 12:26:08;;;;;;;4.97;2.17;;;;;;;;;;4893834;29;20060;-71
2022/03/26 12:28:41;;;;;;;5.45;1.83;;;;;;;;;;4864224;29;20052;-72
2022/03/26 12:31:17;;;;;;;6.38;2.15;;;;;;;;;;4925541;29;20059;-73
2022/03/26 12:33:55;;;;;;;6.03;1.65;;;;;;;;;;4939120;29;20063;-71
2022/03/26 12:36:25;;;;;;;6.60;2.08;;;;;;;;;;4904479;29;20419;-72
2022/03/26 12:38:57;;;;;;;4.90;2.03;;;;;;;;;;4952149;28;20067;-72
2022/03/26 12:41:31;;;;;;;6.50;2.10;;;;;;;;;;4952104;29;20059;-71
2022/03/26 12:44:02;;;;;;;5.57;1.88;;;;;;;;;;4992831;28;20049;-71
2022/03/26 12:46:38;;;;;;;6.57;2.22;;;;;;;;;;5033696;28;20064;-72
2022/03/26 12:49:21;;;;;;;7.32;1.70;;;;;;;;;;5009952;28;20046;-72
2022/03/26 12:51:54;;;;;;;8.82;1.48;;;;;;;;;;5010359;28;20053;-72
2022/03/26 12:54:28;;;;;;;5.13;2.08;;;;;;;;;;5010127;28;20061;-72
2022/03/26 12:57:01;;;;;;;5.30;1.33;;;;;;;;;;4970857;28;20059;-72
2022/03/26 12:59:32;;;;;;;3.30;1.13;;;;;;;;;;4970982;28;20059;-72
2022/03/26 13:02:07;;;;;;;5.28;1.80;;;;;;;;;;4951823;28;20531;-72
2022/03/26 13:04:38;;;;;;;3.35;1.25;;;;;;;;;;4932127;29;20050;-71
2022/03/26 13:07:09;;;;;;;6.22;1.20;;;;;;;;;;4932691;29;20090;-71
2022/03/26 13:09:39;;;;;;;5.38;1.33;;;;;;;;;;4986755;28;20046;-72
2022/03/26 13:12:24;;;;;;;4.78;1.23;;;;;;;;;;4954904;28;20529;-69
2022/03/26 13:14:56;;;;;;;6.20;1.45;;;;;;;;;;4922977;28;20061;-72
2022/03/26 13:17:26;;;;;;;6.05;1.45;;;;;;;;;;4970992;28;20057;-72
2022/03/26 13:19:58;;;;;;;4.55;1.42;;;;;;;;;;4970688;28;20054;-72
2022/03/26 13:22:28;;;;;;;2.85;1.17;;;;;;;;;;4903677;29;20193;-72
2022/03/26 13:25:04;;;;;;;4.90;1.23;;;;;;;;;;4900391;29;20059;-69
2022/03/26 13:27:35;;;;;;;6.28;1.20;;;;;;;;;;4948078;28;20055;-71
2022/03/26 13:30:12;;;;;;;5.40;1.50;;;;;;;;;;4935315;29;20698;-71
2022/03/26 13:32:43;;;;;;;8.20;1.33;;;;;;;;;;4952774;28;20160;-72
2022/03/26 13:35:15;;;;;;;3.97;1.75;;;;;;;;;;4955064;28;20055;-69
2022/03/26 13:37:46;;;;;;;3.42;1.30;;;;;;;;;;4923514;29;20565;-72
2022/03/26 13:40:31;;;;;;;4.88;1.30;;;;;;;;;;4923618;29;20055;-72
2022/03/26 13:43:02;;;;;;;6.90;1.25;;;;;;;;;;4939716;29;20472;-71
2022/03/26 13:45:34;;;;;;;4.60;1.40;;;;;;;;;;4936144;29;20063;-72
2022/03/26 13:48:05;;;;;;;8.65;1.10;;;;;;;;;;4967413;28;20061;-72
2022/03/26 13:50:35;;;;;;;5.97;1.02;;;;;;;;;;4961458;28;20499;-72
2022/03/26 13:53:26;;;;;;;3.20;1.25;;;;;;;;;;4993777;28;20054;-72
2022/03/26 13:55:59;;;;;;;5.80;1.20;;;;;;;;;;4941916;28;20529;-69
2022/03/26 13:58:35;;;;;;;3.80;0.98;;;;;;;;;;4974239;28;20055;-69
2022/03/26 14:01:07;;;;;;;2.95;0.90;;;;;;;;;;5048888;28;20393;-68
2022/03/26 14:03:42;;;;;;;4.28;1.30;;;;;;;;;;5052569;28;20068;-69
2022/03/26 14:06:12;;;;;;;2.08;0.93;;;;;;;;;;5032584;28;20049;-70
2022/03/26 14:08:47;;;;;;;2.70;1.30;;;;;;;;;;5016792;28;20065;-68
2022/03/26 14:11:19;;;;;;;5.75;1.30;;;;;;;;;;5016972;28;20065;-69
2022/03/26 14:13:50;;;;;;;2.45;1.30;;;;;;;;;;4976703;28;20053;-69
2022/03/26 14:16:20;;;;;;;2.85;1.27;;;;;;;;;;4961204;28;20062;-69
2022/03/26 14:18:51;;;;;;;2.22;1.10;;;;;;;;;;4977423;28;20066;-70
2022/03/26 14:21:21;;;;;;;5.22;1.40;;;;;;;;;;4993385;28;20405;-67
2022/03/26 14:23:52;;;;;;;6.30;1.17;;;;;;;;;;4992941;28;20165;-69
2022/03/26 14:26:22;;;;;;;4.88;1.45;;;;;;;;;;4993072;28;20058;-69
2022/03/26 14:28:53;;;;;;;2.80;1.20;;;;;;;;;;4993367;28;20153;-69
2022/03/26 14:31:23;;;;;;;3.25;1.52;;;;;;;;;;4961185;28;20391;-69
2022/03/26 14:33:54;;;;;;;8.65;1.30;;;;;;;;;;5005365;28;20192;-68
2022/03/26 14:36:40;;;;;;;2.63;1.20;;;;;;;;;;5012482;28;20069;-68
2022/03/26 14:39:11;;;;;;;4.47;0.98;;;;;;;;;;4985724;28;20051;-69
2022/03/26 14:41:41;;;;;;;2.50;1.30;;;;;;;;;;4973497;28;20059;-69
2022/03/26 14:44:11;;;;;;;4.72;1.30;;;;;;;;;;5013318;28;20058;-69
2022/03/26 14:46:42;;;;;;;3.97;1.23;;;;;;;;;;5012459;28;20050;-66
2022/03/26 14:49:13;;;;;;;5.50;1.08;;;;;;;;;;5012513;28;20052;-69
2022/03/26 14:51:43;;;;;;;4.47;1.10;;;;;;;;;;5017284;28;20059;-69
2022/03/26 14:54:13;;;;;;;2.70;1.20;;;;;;;;;;5034562;28;20497;-69
2022/03/26 14:56:44;;;;;;;2.55;1.10;;;;;;;;;;5034404;28;20508;-70
2022/03/26 14:59:15;;;;;;;3.75;1.23;;;;;;;;;;5034397;28;20041;-66
2022/03/26 15:01:45;;;;;;;2.17;1.00;;;;;;;;;;5016220;28;20058;-68
2022/03/26 15:04:17;;;;;;;3.25;1.20;;;;;;;;;;5032883;28;20052;-69
2022/03/26 15:06:48;;;;;;;3.15;1.00;;;;;;;;;;5034158;28;20053;-67
2022/03/26 15:09:19;;;;;;;5.15;1.38;;;;;;;;;;5034209;28;20382;-69
2022/03/26 15:11:49;;;;;;;4.30;1.60;;;;;;;;;;5051653;28;20401;-69
2022/03/26 15:14:20;;;;;;;2.85;1.30;;;;;;;;;;5051556;28;20064;-70
2022/03/26 15:16:50;;;;;;;4.43;1.15;;;;;;;;;;5051953;28;20057;-70
2022/03/26 15:19:21;;;;;;;6.70;1.20;;;;;;;;;;5051672;28;20055;-69
2022/03/26 15:21:52;;;;;;;5.68;1.33;;;;;;;;;;5051585;28;20072;-69
2022/03/26 15:24:22;;;;;;;3.95;1.17;;;;;;;;;;5071379;28;20059;-68